Portada
METAR-TAF:

METAR-TAF

Aeropuertos :

Granada, España

Base Aérea de Armilla

latitud: 37-08N, longitud: 003-38-08W, altitud: 700 m

Observación

El informe se hizo hace 1 hora y 13 minutos, a las 08:00 UTC
Viento 3 kt del norte
Temperatura 15°C
Humedad 59%
Presión 1017 hPa
Visibilidad 10 km o más
sin nubes por debajo de 1500 m y sin presencia de cumulonimbus.

METAR: LEGA 240800Z 35003KT CAVOK 15/07 Q1017

Hora: 11:13 (09:13 UTC)

Pronóstico

El informe se hizo hace 1 hora y 13 minutos, a las 08:00 UTC
Pronóstico válido del 24 a las 09 UTC al 24 a las 18 UTC
Viento 2 kt con dirección variable
Visibilidad 10 km o más
Escasas nubes a una altura de 5000 ft
Temporalmente
del 24 a las 12 UTC al 24 a las 18 UTC
Viento 10 kt del sur
Nubes dispersas a una altura de 4000 ft, Cumulonimbus.

TAF: LEGA 240800Z 2409/2418 VRB02KT 9999 FEW050 TEMPO 2412/2418 18010KT SCT040CB

Observaciones y pronósticos meteorológicos de más de 4000 aeropuertos (mensajes METAR y TAF).

Los puntos amarillos y rojos representan las estaciones disponibles.

Ponga el ratón en el punto deseado para ver el nombre de la estación.

Haga clic para ver las observaciones y los pronósticos meteorológicos.

Para cambiar el mapa : haga clic en los botones verdes con una cruz de color negro para hacer un zoom, en el botón verde con un guión para alejar o en las flechas verdes para mapas adyacentes.


METAR-TAF: